sensor_id;sensor_type;location;lat;lon;timestamp;temperature;humidity
21844;DHT22;11084;52.482;9.108;2023-04-10T00:00:09;3.50;99.90
21844;DHT22;11084;52.482;9.108;2023-04-10T00:02:36;3.50;99.90
21844;DHT22;11084;52.482;9.108;2023-04-10T00:05:03;3.50;99.90
21844;DHT22;11084;52.482;9.108;2023-04-10T00:07:29;3.50;99.90
21844;DHT22;11084;52.482;9.108;2023-04-10T00:09:56;3.50;99.90
21844;DHT22;11084;52.482;9.108;2023-04-10T00:12:22;3.50;99.90
21844;DHT22;11084;52.482;9.108;2023-04-10T00:14:48;3.50;99.90
21844;DHT22;11084;52.482;9.108;2023-04-10T00:17:14;3.50;99.90
21844;DHT22;11084;52.482;9.108;2023-04-10T00:19:40;3.50;99.90
21844;DHT22;11084;52.482;9.108;2023-04-10T00:22:06;3.50;99.90
21844;DHT22;11084;52.482;9.108;2023-04-10T00:24:32;3.40;99.90
21844;DHT22;11084;52.482;9.108;2023-04-10T00:26:58;3.40;99.90
21844;DHT22;11084;52.482;9.108;2023-04-10T00:29:26;3.40;99.90
21844;DHT22;11084;52.482;9.108;2023-04-10T00:31:52;3.30;99.90
21844;DHT22;11084;52.482;9.108;2023-04-10T00:34:18;3.30;99.90
21844;DHT22;11084;52.482;9.108;2023-04-10T00:36:45;3.30;99.90
21844;DHT22;11084;52.482;9.108;2023-04-10T00:39:13;3.30;99.90
21844;DHT22;11084;52.482;9.108;2023-04-10T00:41:39;3.20;99.90
21844;DHT22;11084;52.482;9.108;2023-04-10T00:44:05;3.20;99.90
21844;DHT22;11084;52.482;9.108;2023-04-10T00:46:31;3.20;99.90
21844;DHT22;11084;52.482;9.108;2023-04-10T00:48:57;3.20;99.90
21844;DHT22;11084;52.482;9.108;2023-04-10T00:51:24;3.20;99.90
21844;DHT22;11084;52.482;9.108;2023-04-10T00:53:51;3.10;99.90
21844;DHT22;11084;52.482;9.108;2023-04-10T00:56:18;3.10;99.90
21844;DHT22;11084;52.482;9.108;2023-04-10T00:58:46;3.10;99.90
21844;DHT22;11084;52.482;9.108;2023-04-10T01:01:12;3.00;99.90
21844;DHT22;11084;52.482;9.108;2023-04-10T01:03:39;3.00;99.90
21844;DHT22;11084;52.482;9.108;2023-04-10T01:15:14;2.90;99.90
21844;DHT22;11084;52.482;9.108;2023-04-10T01:20:37;2.90;99.90
21844;DHT22;11084;52.482;9.108;2023-04-10T01:29:31;2.80;99.90
21844;DHT22;11084;52.482;9.108;2023-04-10T01:32:01;2.70;99.90
21844;DHT22;11084;52.482;9.108;2023-04-10T01:34:35;2.70;99.90
21844;DHT22;11084;52.482;9.108;2023-04-10T01:37:39;2.70;99.90
21844;DHT22;11084;52.482;9.108;2023-04-10T01:40:02;2.70;99.90
21844;DHT22;11084;52.482;9.108;2023-04-10T01:42:37;2.70;99.90
21844;DHT22;11084;52.482;9.108;2023-04-10T01:45:08;2.60;99.90
21844;DHT22;11084;52.482;9.108;2023-04-10T01:47:38;2.60;99.90
21844;DHT22;11084;52.482;9.108;2023-04-10T01:50:05;2.60;99.90
21844;DHT22;11084;52.482;9.108;2023-04-10T01:52:33;2.60;99.90
21844;DHT22;11084;52.482;9.108;2023-04-10T01:55:12;2.60;99.90
21844;DHT22;11084;52.482;9.108;2023-04-10T01:57:44;2.60;99.90
21844;DHT22;11084;52.482;9.108;2023-04-10T02:00:16;2.60;99.90
21844;DHT22;11084;52.482;9.108;2023-04-10T02:02:43;2.60;99.90
21844;DHT22;11084;52.482;9.108;2023-04-10T02:05:09;2.60;99.90
21844;DHT22;11084;52.482;9.108;2023-04-10T02:07:49;2.60;99.90
21844;DHT22;11084;52.482;9.108;2023-04-10T02:30:40;2.70;99.90
21844;DHT22;11084;52.482;9.108;2023-04-10T02:33:09;2.80;99.90
21844;DHT22;11084;52.482;9.108;2023-04-10T02:35:36;2.80;99.90
21844;DHT22;11084;52.482;9.108;2023-04-10T02:38:02;2.80;99.90
21844;DHT22;11084;52.482;9.108;2023-04-10T02:40:30;2.90;99.90
21844;DHT22;11084;52.482;9.108;2023-04-10T02:43:16;2.90;99.90
21844;DHT22;11084;52.482;9.108;2023-04-10T02:45:42;3.00;99.90
21844;DHT22;11084;52.482;9.108;2023-04-10T02:48:11;3.00;99.90
21844;DHT22;11084;52.482;9.108;2023-04-10T02:50:37;3.10;99.90
21844;DHT22;11084;52.482;9.108;2023-04-10T02:53:03;3.10;99.90
21844;DHT22;11084;52.482;9.108;2023-04-10T02:55:30;3.10;99.90
21844;DHT22;11084;52.482;9.108;2023-04-10T02:57:56;3.20;99.90
21844;DHT22;11084;52.482;9.108;2023-04-10T03:00:22;3.20;99.90
21844;DHT22;11084;52.482;9.108;2023-04-10T03:03:08;3.30;99.90
21844;DHT22;11084;52.482;9.108;2023-04-10T03:05:42;3.30;99.90
21844;DHT22;11084;52.482;9.108;2023-04-10T03:08:08;3.50;99.90
21844;DHT22;11084;52.482;9.108;2023-04-10T03:10:34;3.50;99.90
21844;DHT22;11084;52.482;9.108;2023-04-10T03:13:00;3.60;99.90
21844;DHT22;11084;52.482;9.108;2023-04-10T03:15:27;3.70;99.90
21844;DHT22;11084;52.482;9.108;2023-04-10T03:17:53;3.80;99.90
21844;DHT22;11084;52.482;9.108;2023-04-10T03:20:19;3.90;99.90
21844;DHT22;11084;52.482;9.108;2023-04-10T03:22:45;4.00;99.90
21844;DHT22;11084;52.482;9.108;2023-04-10T03:25:11;5.30;99.90
21844;DHT22;11084;52.482;9.108;2023-04-10T03:27:37;4.20;99.90
21844;DHT22;11084;52.482;9.108;2023-04-10T03:30:04;4.20;99.90
21844;DHT22;11084;52.482;9.108;2023-04-10T03:32:38;4.30;99.90
21844;DHT22;11084;52.482;9.108;2023-04-10T03:35:07;4.40;99.90
21844;DHT22;11084;52.482;9.108;2023-04-10T03:37:34;4.40;99.90
21844;DHT22;11084;52.482;9.108;2023-04-10T03:40:05;4.50;99.90
21844;DHT22;11084;52.482;9.108;2023-04-10T03:42:32;4.60;99.90
21844;DHT22;11084;52.482;9.108;2023-04-10T03:44:58;4.60;99.90
21844;DHT22;11084;52.482;9.108;2023-04-10T03:47:25;4.60;99.90
21844;DHT22;11084;52.482;9.108;2023-04-10T03:49:52;4.60;99.90
21844;DHT22;11084;52.482;9.108;2023-04-10T03:52:18;3.20;99.90
21844;DHT22;11084;52.482;9.108;2023-04-10T03:54:45;4.60;99.90
21844;DHT22;11084;52.482;9.108;2023-04-10T03:57:22;4.60;99.90
21844;DHT22;11084;52.482;9.108;2023-04-10T03:59:49;4.70;99.90
21844;DHT22;11084;52.482;9.108;2023-04-10T04:02:17;4.70;99.90
21844;DHT22;11084;52.482;9.108;2023-04-10T04:04:43;4.70;99.90
21844;DHT22;11084;52.482;9.108;2023-04-10T04:07:33;4.70;99.90
21844;DHT22;11084;52.482;9.108;2023-04-10T04:10:09;4.70;99.90
21844;DHT22;11084;52.482;9.108;2023-04-10T04:12:56;4.70;99.90
21844;DHT22;11084;52.482;9.108;2023-04-10T04:15:48;4.70;99.90
21844;DHT22;11084;52.482;9.108;2023-04-10T04:18:34;4.70;99.90
21844;DHT22;11084;52.482;9.108;2023-04-10T04:21:19;4.70;99.90
21844;DHT22;11084;52.482;9.108;2023-04-10T04:24:20;4.70;99.90
21844;DHT22;11084;52.482;9.108;2023-04-10T04:27:09;4.80;99.90
21844;DHT22;11084;52.482;9.108;2023-04-10T04:29:59;4.80;99.90
21844;DHT22;11084;52.482;9.108;2023-04-10T04:32:44;4.80;99.90
21844;DHT22;11084;52.482;9.108;2023-04-10T04:35:29;4.80;99.90
21844;DHT22;11084;52.482;9.108;2023-04-10T04:38:15;4.90;99.90
21844;DHT22;11084;52.482;9.108;2023-04-10T04:40:59;4.90;99.90
21844;DHT22;11084;52.482;9.108;2023-04-10T04:43:44;5.00;99.90
21844;DHT22;11084;52.482;9.108;2023-04-10T04:46:21;5.00;99.90
21844;DHT22;11084;52.482;9.108;2023-04-10T04:48:59;5.00;99.90
21844;DHT22;11084;52.482;9.108;2023-04-10T04:51:51;5.10;99.90
21844;DHT22;11084;52.482;9.108;2023-04-10T04:54:34;5.10;99.90
21844;DHT22;11084;52.482;9.108;2023-04-10T04:57:19;5.20;99.90
21844;DHT22;11084;52.482;9.108;2023-04-10T05:00:14;5.20;99.90
21844;DHT22;11084;52.482;9.108;2023-04-10T05:03:00;5.30;99.90
21844;DHT22;11084;52.482;9.108;2023-04-10T05:05:41;5.40;99.90
21844;DHT22;11084;52.482;9.108;2023-04-10T05:08:19;5.50;99.90
21844;DHT22;11084;52.482;9.108;2023-04-10T05:11:20;5.50;99.90
21844;DHT22;11084;52.482;9.108;2023-04-10T05:14:16;5.70;99.90
21844;DHT22;11084;52.482;9.108;2023-04-10T05:16:57;5.80;99.90
21844;DHT22;11084;52.482;9.108;2023-04-10T05:19:42;5.90;99.90
21844;DHT22;11084;52.482;9.108;2023-04-10T05:22:34;6.00;99.90
21844;DHT22;11084;52.482;9.108;2023-04-10T05:25:26;6.20;99.90
21844;DHT22;11084;52.482;9.108;2023-04-10T05:28:08;6.30;99.90
21844;DHT22;11084;52.482;9.108;2023-04-10T05:30:52;6.40;99.90
21844;DHT22;11084;52.482;9.108;2023-04-10T05:33:44;6.60;99.90
21844;DHT22;11084;52.482;9.108;2023-04-10T05:36:36;4.50;99.90
21844;DHT22;11084;52.482;9.108;2023-04-10T05:39:19;6.90;99.90
21844;DHT22;11084;52.482;9.108;2023-04-10T05:42:20;7.10;99.90
21844;DHT22;11084;52.482;9.108;2023-04-10T05:45:05;7.30;99.90
21844;DHT22;11084;52.482;9.108;2023-04-10T05:47:43;7.60;99.90
21844;DHT22;11084;52.482;9.108;2023-04-10T05:50:18;7.80;99.90
21844;DHT22;11084;52.482;9.108;2023-04-10T05:53:12;8.00;99.90
21844;DHT22;11084;52.482;9.108;2023-04-10T05:56:02;8.20;99.90
21844;DHT22;11084;52.482;9.108;2023-04-10T05:58:46;8.40;99.90
21844;DHT22;11084;52.482;9.108;2023-04-10T06:01:12;8.40;99.90
21844;DHT22;11084;52.482;9.108;2023-04-10T06:03:38;8.50;99.90
21844;DHT22;11084;52.482;9.108;2023-04-10T06:06:06;8.50;99.90
21844;DHT22;11084;52.482;9.108;2023-04-10T06:08:33;8.60;99.90
21844;DHT22;11084;52.482;9.108;2023-04-10T06:10:59;8.70;99.90
21844;DHT22;11084;52.482;9.108;2023-04-10T06:13:25;8.80;99.90
21844;DHT22;11084;52.482;9.108;2023-04-10T06:15:55;9.20;99.90
21844;DHT22;11084;52.482;9.108;2023-04-10T06:18:22;9.50;99.90
21844;DHT22;11084;52.482;9.108;2023-04-10T06:20:48;9.80;99.90
21844;DHT22;11084;52.482;9.108;2023-04-10T06:23:30;9.20;99.90
21844;DHT22;11084;52.482;9.108;2023-04-10T06:25:56;10.40;99.90
21844;DHT22;11084;52.482;9.108;2023-04-10T06:28:22;10.70;99.90
21844;DHT22;11084;52.482;9.108;2023-04-10T06:30:53;11.00;99.90
21844;DHT22;11084;52.482;9.108;2023-04-10T06:33:27;11.30;99.90
21844;DHT22;11084;52.482;9.108;2023-04-10T06:35:53;11.60;99.90
21844;DHT22;11084;52.482;9.108;2023-04-10T06:38:20;11.80;99.90
21844;DHT22;11084;52.482;9.108;2023-04-10T06:40:47;12.00;99.90
21844;DHT22;11084;52.482;9.108;2023-04-10T06:43:13;12.10;99.90
21844;DHT22;11084;52.482;9.108;2023-04-10T06:45:39;12.10;99.90
21844;DHT22;11084;52.482;9.108;2023-04-10T06:48:06;12.20;99.90
21844;DHT22;11084;52.482;9.108;2023-04-10T06:50:32;12.10;99.90
21844;DHT22;11084;52.482;9.108;2023-04-10T06:52:58;12.10;99.90
21844;DHT22;11084;52.482;9.108;2023-04-10T06:58:02;12.50;99.90
21844;DHT22;11084;52.482;9.108;2023-04-10T07:00:29;12.70;99.90
21844;DHT22;11084;52.482;9.108;2023-04-10T07:02:55;13.00;99.90
21844;DHT22;11084;52.482;9.108;2023-04-10T07:05:21;13.20;99.90
21844;DHT22;11084;52.482;9.108;2023-04-10T07:07:52;13.40;99.90
21844;DHT22;11084;52.482;9.108;2023-04-10T07:10:19;13.60;99.90
21844;DHT22;11084;52.482;9.108;2023-04-10T07:12:45;13.90;99.90
21844;DHT22;11084;52.482;9.108;2023-04-10T07:15:11;14.10;99.90
21844;DHT22;11084;52.482;9.108;2023-04-10T07:17:37;14.20;99.90
21844;DHT22;11084;52.482;9.108;2023-04-10T07:20:14;14.40;99.90
21844;DHT22;11084;52.482;9.108;2023-04-10T07:22:43;14.50;99.90
21844;DHT22;11084;52.482;9.108;2023-04-10T07:25:15;14.70;99.90
21844;DHT22;11084;52.482;9.108;2023-04-10T07:27:46;14.70;99.90
21844;DHT22;11084;52.482;9.108;2023-04-10T07:30:12;12.90;99.90
21844;DHT22;11084;52.482;9.108;2023-04-10T07:32:41;15.00;99.90
21844;DHT22;11084;52.482;9.108;2023-04-10T07:35:12;15.10;99.90
21844;DHT22;11084;52.482;9.108;2023-04-10T07:37:48;14.30;99.90
21844;DHT22;11084;52.482;9.108;2023-04-10T07:40:16;15.50;99.90
21844;DHT22;11084;52.482;9.108;2023-04-10T07:42:42;15.70;99.90
21844;DHT22;11084;52.482;9.108;2023-04-10T07:45:09;15.30;99.90
21844;DHT22;11084;52.482;9.108;2023-04-10T07:47:35;15.80;99.90
21844;DHT22;11084;52.482;9.108;2023-04-10T07:50:04;16.00;99.90
21844;DHT22;11084;52.482;9.108;2023-04-10T07:52:58;16.20;99.90
21844;DHT22;11084;52.482;9.108;2023-04-10T07:55:43;16.50;99.90
21844;DHT22;11084;52.482;9.108;2023-04-10T07:58:13;16.70;99.90
21844;DHT22;11084;52.482;9.108;2023-04-10T08:00:39;16.80;99.90
21844;DHT22;11084;52.482;9.108;2023-04-10T08:03:05;19.50;99.90
21844;DHT22;11084;52.482;9.108;2023-04-10T08:05:32;16.60;99.90
21844;DHT22;11084;52.482;9.108;2023-04-10T08:07:58;17.30;98.80
21844;DHT22;11084;52.482;9.108;2023-04-10T08:10:25;17.40;98.90
21844;DHT22;11084;52.482;9.108;2023-04-10T08:12:51;17.60;99.40
21844;DHT22;11084;52.482;9.108;2023-04-10T08:15:17;17.90;98.10
21844;DHT22;11084;52.482;9.108;2023-04-10T08:17:43;17.90;97.00
21844;DHT22;11084;52.482;9.108;2023-04-10T08:20:10;18.20;96.50
21844;DHT22;11084;52.482;9.108;2023-04-10T08:22:37;18.30;95.50
21844;DHT22;11084;52.482;9.108;2023-04-10T08:25:04;18.50;95.00
21844;DHT22;11084;52.482;9.108;2023-04-10T08:27:31;18.60;95.00
21844;DHT22;11084;52.482;9.108;2023-04-10T08:29:57;18.80;93.70
21844;DHT22;11084;52.482;9.108;2023-04-10T08:32:24;18.90;93.60
21844;DHT22;11084;52.482;9.108;2023-04-10T08:34:51;18.90;91.90
21844;DHT22;11084;52.482;9.108;2023-04-10T08:37:17;18.80;90.80
21844;DHT22;11084;52.482;9.108;2023-04-10T08:39:44;18.70;90.90
21844;DHT22;11084;52.482;9.108;2023-04-10T08:42:10;18.70;90.60
21844;DHT22;11084;52.482;9.108;2023-04-10T08:44:36;18.20;88.30
21844;DHT22;11084;52.482;9.108;2023-04-10T08:47:05;18.30;87.10
21844;DHT22;11084;52.482;9.108;2023-04-10T08:49:47;18.50;89.00
21844;DHT22;11084;52.482;9.108;2023-04-10T08:52:24;18.50;83.70
21844;DHT22;11084;52.482;9.108;2023-04-10T08:54:54;18.20;82.30
21844;DHT22;11084;52.482;9.108;2023-04-10T08:57:21;18.60;88.70
21844;DHT22;11084;52.482;9.108;2023-04-10T08:59:49;18.80;88.10
21844;DHT22;11084;52.482;9.108;2023-04-10T09:02:19;18.70;83.10
21844;DHT22;11084;52.482;9.108;2023-04-10T09:04:48;18.90;85.70
21844;DHT22;11084;52.482;9.108;2023-04-10T09:07:16;18.90;82.70
21844;DHT22;11084;52.482;9.108;2023-04-10T09:09:42;18.80;83.70
21844;DHT22;11084;52.482;9.108;2023-04-10T09:12:09;18.80;85.80
21844;DHT22;11084;52.482;9.108;2023-04-10T09:14:36;18.90;86.30
21844;DHT22;11084;52.482;9.108;2023-04-10T09:19:47;18.20;79.20
21844;DHT22;11084;52.482;9.108;2023-04-10T09:22:15;17.90;81.20
21844;DHT22;11084;52.482;9.108;2023-04-10T09:24:43;17.80;80.70
21844;DHT22;11084;52.482;9.108;2023-04-10T09:27:10;17.60;81.10
21844;DHT22;11084;52.482;9.108;2023-04-10T09:29:52;17.70;82.60
21844;DHT22;11084;52.482;9.108;2023-04-10T09:32:38;19.30;86.20
21844;DHT22;11084;52.482;9.108;2023-04-10T09:35:07;17.90;81.30
21844;DHT22;11084;52.482;9.108;2023-04-10T09:37:35;17.90;82.70
21844;DHT22;11084;52.482;9.108;2023-04-10T09:40:02;18.10;84.50
21844;DHT22;11084;52.482;9.108;2023-04-10T09:42:35;17.90;79.80
21844;DHT22;11084;52.482;9.108;2023-04-10T09:45:03;18.00;79.70
21844;DHT22;11084;52.482;9.108;2023-04-10T09:47:30;18.00;80.20
21844;DHT22;11084;52.482;9.108;2023-04-10T09:49:59;18.00;80.20
21844;DHT22;11084;52.482;9.108;2023-04-10T09:55:05;18.30;80.30
21844;DHT22;11084;52.482;9.108;2023-04-10T09:57:34;18.40;80.90
21844;DHT22;11084;52.482;9.108;2023-04-10T10:00:03;19.60;80.20
21844;DHT22;11084;52.482;9.108;2023-04-10T10:02:36;18.40;77.40
21844;DHT22;11084;52.482;9.108;2023-04-10T10:05:06;18.40;76.70
21844;DHT22;11084;52.482;9.108;2023-04-10T10:07:33;18.30;75.00
21844;DHT22;11084;52.482;9.108;2023-04-10T10:10:02;17.90;74.00
21844;DHT22;11084;52.482;9.108;2023-04-10T10:12:53;18.00;74.30
21844;DHT22;11084;52.482;9.108;2023-04-10T10:18:20;18.00;72.80
21844;DHT22;11084;52.482;9.108;2023-04-10T10:20:52;18.20;74.40
21844;DHT22;11084;52.482;9.108;2023-04-10T10:23:18;18.60;76.40
21844;DHT22;11084;52.482;9.108;2023-04-10T10:25:48;18.50;75.10
21844;DHT22;11084;52.482;9.108;2023-04-10T10:28:17;18.40;74.90
21844;DHT22;11084;52.482;9.108;2023-04-10T10:30:44;18.30;75.00
21844;DHT22;11084;52.482;9.108;2023-04-10T10:33:11;18.50;76.80
21844;DHT22;11084;52.482;9.108;2023-04-10T10:35:38;18.60;74.00
21844;DHT22;11084;52.482;9.108;2023-04-10T10:38:06;18.70;75.20
21844;DHT22;11084;52.482;9.108;2023-04-10T10:46:18;18.90;70.20
21844;DHT22;11084;52.482;9.108;2023-04-10T10:48:55;18.70;69.90
21844;DHT22;11084;52.482;9.108;2023-04-10T10:51:22;18.70;70.30
21844;DHT22;11084;52.482;9.108;2023-04-10T10:53:48;18.40;70.00
21844;DHT22;11084;52.482;9.108;2023-04-10T10:58:55;18.30;68.80
21844;DHT22;11084;52.482;9.108;2023-04-10T11:01:23;18.10;69.30
21844;DHT22;11084;52.482;9.108;2023-04-10T11:03:49;18.10;69.20
21844;DHT22;11084;52.482;9.108;2023-04-10T11:06:17;17.00;71.70
21844;DHT22;11084;52.482;9.108;2023-04-10T11:08:48;18.50;70.80
21844;DHT22;11084;52.482;9.108;2023-04-10T11:11:21;18.60;70.40
21844;DHT22;11084;52.482;9.108;2023-04-10T11:16:23;18.70;71.30
21844;DHT22;11084;52.482;9.108;2023-04-10T11:19:11;18.70;68.10
21844;DHT22;11084;52.482;9.108;2023-04-10T11:24:29;18.40;64.10
21844;DHT22;11084;52.482;9.108;2023-04-10T11:27:44;18.60;67.10
21844;DHT22;11084;52.482;9.108;2023-04-10T11:30:33;18.60;62.80
21844;DHT22;11084;52.482;9.108;2023-04-10T11:33:02;18.60;61.90
21844;DHT22;11084;52.482;9.108;2023-04-10T11:35:29;18.70;64.20
21844;DHT22;11084;52.482;9.108;2023-04-10T11:38:13;17.00;62.10
21844;DHT22;11084;52.482;9.108;2023-04-10T11:41:01;18.60;62.60
21844;DHT22;11084;52.482;9.108;2023-04-10T11:43:30;18.60;62.20
21844;DHT22;11084;52.482;9.108;2023-04-10T11:46:05;17.10;61.80
21844;DHT22;11084;52.482;9.108;2023-04-10T11:48:32;19.00;64.00
21844;DHT22;11084;52.482;9.108;2023-04-10T11:51:05;19.10;65.60
21844;DHT22;11084;52.482;9.108;2023-04-10T11:53:32;18.70;62.70
21844;DHT22;11084;52.482;9.108;2023-04-10T11:55:58;18.60;62.20
21844;DHT22;11084;52.482;9.108;2023-04-10T11:58:28;18.40;62.00
21844;DHT22;11084;52.482;9.108;2023-04-10T12:01:03;18.70;64.20
21844;DHT22;11084;52.482;9.108;2023-04-10T12:03:37;18.70;63.60
21844;DHT22;11084;52.482;9.108;2023-04-10T12:06:11;18.90;64.30
21844;DHT22;11084;52.482;9.108;2023-04-10T12:08:42;18.90;63.20
21844;DHT22;11084;52.482;9.108;2023-04-10T12:11:25;18.90;64.00
21844;DHT22;11084;52.482;9.108;2023-04-10T12:13:54;18.70;62.30
21844;DHT22;11084;52.482;9.108;2023-04-10T12:16:24;18.50;61.80
21844;DHT22;11084;52.482;9.108;2023-04-10T12:18:51;18.80;63.70
21844;DHT22;11084;52.482;9.108;2023-04-10T12:21:18;18.60;61.50
21844;DHT22;11084;52.482;9.108;2023-04-10T12:23:44;18.70;63.10
21844;DHT22;11084;52.482;9.108;2023-04-10T12:26:15;18.80;63.20
21844;DHT22;11084;52.482;9.108;2023-04-10T12:29:02;18.70;62.10
21844;DHT22;11084;52.482;9.108;2023-04-10T12:31:35;18.90;62.30
21844;DHT22;11084;52.482;9.108;2023-04-10T12:34:20;19.00;63.60
21844;DHT22;11084;52.482;9.108;2023-04-10T12:36:51;19.00;63.20
21844;DHT22;11084;52.482;9.108;2023-04-10T12:39:23;19.00;62.00
21844;DHT22;11084;52.482;9.108;2023-04-10T12:41:49;19.30;63.40
21844;DHT22;11084;52.482;9.108;2023-04-10T12:44:16;19.40;64.20
21844;DHT22;11084;52.482;9.108;2023-04-10T12:46:44;19.50;64.10
21844;DHT22;11084;52.482;9.108;2023-04-10T12:51:50;19.20;62.20
21844;DHT22;11084;52.482;9.108;2023-04-10T12:56:57;19.40;63.40
21844;DHT22;11084;52.482;9.108;2023-04-10T12:59:24;19.20;63.20
21844;DHT22;11084;52.482;9.108;2023-04-10T13:01:52;19.60;63.10
21844;DHT22;11084;52.482;9.108;2023-04-10T13:04:18;19.70;63.40
21844;DHT22;11084;52.482;9.108;2023-04-10T13:06:46;19.70;63.40
21844;DHT22;11084;52.482;9.108;2023-04-10T13:09:13;19.80;63.90
21844;DHT22;11084;52.482;9.108;2023-04-10T13:11:41;19.80;63.10
21844;DHT22;11084;52.482;9.108;2023-04-10T13:14:07;19.50;62.90
21844;DHT22;11084;52.482;9.108;2023-04-10T13:16:34;19.60;63.70
21844;DHT22;11084;52.482;9.108;2023-04-10T13:19:00;19.50;62.50
21844;DHT22;11084;52.482;9.108;2023-04-10T13:21:26;19.60;63.30
21844;DHT22;11084;52.482;9.108;2023-04-10T13:23:56;19.70;64.60
21844;DHT22;11084;52.482;9.108;2023-04-10T13:26:24;19.40;64.40
21844;DHT22;11084;52.482;9.108;2023-04-10T13:28:50;19.90;65.90
21844;DHT22;11084;52.482;9.108;2023-04-10T13:31:16;20.00;64.70
21844;DHT22;11084;52.482;9.108;2023-04-10T13:33:46;19.90;64.20
21844;DHT22;11084;52.482;9.108;2023-04-10T13:36:13;16.90;59.20
21844;DHT22;11084;52.482;9.108;2023-04-10T13:38:40;19.50;63.50
21844;DHT22;11084;52.482;9.108;2023-04-10T13:41:06;19.70;64.60
21844;DHT22;11084;52.482;9.108;2023-04-10T13:43:32;19.60;63.20
21844;DHT22;11084;52.482;9.108;2023-04-10T13:45:58;19.70;63.20
21844;DHT22;11084;52.482;9.108;2023-04-10T13:48:25;19.60;61.80
21844;DHT22;11084;52.482;9.108;2023-04-10T13:50:51;19.20;61.40
21844;DHT22;11084;52.482;9.108;2023-04-10T13:53:17;19.10;63.60
21844;DHT22;11084;52.482;9.108;2023-04-10T13:55:43;19.00;63.80
21844;DHT22;11084;52.482;9.108;2023-04-10T13:58:12;19.00;63.50
21844;DHT22;11084;52.482;9.108;2023-04-10T14:00:38;17.80;61.60
21844;DHT22;11084;52.482;9.108;2023-04-10T14:03:05;18.70;62.20
21844;DHT22;11084;52.482;9.108;2023-04-10T14:05:34;18.80;63.20
21844;DHT22;11084;52.482;9.108;2023-04-10T14:08:01;18.80;63.90
21844;DHT22;11084;52.482;9.108;2023-04-10T14:10:27;18.80;63.40
21844;DHT22;11084;52.482;9.108;2023-04-10T14:12:53;19.00;63.70
21844;DHT22;11084;52.482;9.108;2023-04-10T14:15:19;18.90;63.40
21844;DHT22;11084;52.482;9.108;2023-04-10T14:17:45;18.80;62.70
21844;DHT22;11084;52.482;9.108;2023-04-10T14:20:11;18.70;63.70
21844;DHT22;11084;52.482;9.108;2023-04-10T14:22:38;18.90;65.20
21844;DHT22;11084;52.482;9.108;2023-04-10T14:25:04;18.80;63.80
21844;DHT22;11084;52.482;9.108;2023-04-10T14:27:33;18.80;63.20
21844;DHT22;11084;52.482;9.108;2023-04-10T14:29:59;18.80;63.70
21844;DHT22;11084;52.482;9.108;2023-04-10T14:32:25;18.70;62.60
21844;DHT22;11084;52.482;9.108;2023-04-10T14:34:51;18.70;62.70
21844;DHT22;11084;52.482;9.108;2023-04-10T14:37:17;18.70;64.40
21844;DHT22;11084;52.482;9.108;2023-04-10T14:39:43;18.80;65.90
21844;DHT22;11084;52.482;9.108;2023-04-10T14:42:09;18.70;64.00
21844;DHT22;11084;52.482;9.108;2023-04-10T14:44:35;18.70;63.60
21844;DHT22;11084;52.482;9.108;2023-04-10T14:47:01;18.60;63.50
21844;DHT22;11084;52.482;9.108;2023-04-10T14:49:31;20.20;65.50
21844;DHT22;11084;52.482;9.108;2023-04-10T14:51:57;18.60;65.00
21844;DHT22;11084;52.482;9.108;2023-04-10T14:54:23;18.70;65.80
21844;DHT22;11084;52.482;9.108;2023-04-10T14:56:49;18.70;66.00
21844;DHT22;11084;52.482;9.108;2023-04-10T14:59:16;18.70;64.50
21844;DHT22;11084;52.482;9.108;2023-04-10T15:01:43;18.60;65.10
21844;DHT22;11084;52.482;9.108;2023-04-10T15:04:09;18.50;64.60
21844;DHT22;11084;52.482;9.108;2023-04-10T15:06:36;18.50;63.70
21844;DHT22;11084;52.482;9.108;2023-04-10T15:09:02;18.40;64.20
21844;DHT22;11084;52.482;9.108;2023-04-10T15:11:28;18.40;65.00
21844;DHT22;11084;52.482;9.108;2023-04-10T15:13:54;18.40;64.20
21844;DHT22;11084;52.482;9.108;2023-04-10T15:16:22;18.30;63.60
21844;DHT22;11084;52.482;9.108;2023-04-10T15:18:48;18.40;65.00
21844;DHT22;11084;52.482;9.108;2023-04-10T15:21:15;18.30;63.20
21844;DHT22;11084;52.482;9.108;2023-04-10T15:23:41;20.80;65.00
21844;DHT22;11084;52.482;9.108;2023-04-10T15:26:14;19.00;62.70
21844;DHT22;11084;52.482;9.108;2023-04-10T15:28:41;17.90;60.00
21844;DHT22;11084;52.482;9.108;2023-04-10T15:31:10;17.90;61.70
21844;DHT22;11084;52.482;9.108;2023-04-10T15:33:36;17.90;62.20
21844;DHT22;11084;52.482;9.108;2023-04-10T15:36:05;17.90;62.10
21844;DHT22;11084;52.482;9.108;2023-04-10T15:38:34;17.90;62.20
21844;DHT22;11084;52.482;9.108;2023-04-10T15:41:06;17.80;61.70
21844;DHT22;11084;52.482;9.108;2023-04-10T15:43:33;17.70;61.90
21844;DHT22;11084;52.482;9.108;2023-04-10T15:46:00;17.60;61.60
21844;DHT22;11084;52.482;9.108;2023-04-10T15:48:26;17.60;62.80
21844;DHT22;11084;52.482;9.108;2023-04-10T15:50:53;17.60;62.60
21844;DHT22;11084;52.482;9.108;2023-04-10T15:53:19;17.60;63.00
21844;DHT22;11084;52.482;9.108;2023-04-10T15:55:45;17.60;63.50
21844;DHT22;11084;52.482;9.108;2023-04-10T15:58:12;17.60;63.00
21844;DHT22;11084;52.482;9.108;2023-04-10T16:00:38;17.50;62.70
21844;DHT22;11084;52.482;9.108;2023-04-10T16:03:04;17.50;62.70
21844;DHT22;11084;52.482;9.108;2023-04-10T16:05:31;17.40;63.40
21844;DHT22;11084;52.482;9.108;2023-04-10T16:07:57;17.50;63.60
21844;DHT22;11084;52.482;9.108;2023-04-10T16:10:23;14.70;60.50
21844;DHT22;11084;52.482;9.108;2023-04-10T16:12:49;17.50;63.60
21844;DHT22;11084;52.482;9.108;2023-04-10T16:15:15;17.40;62.90
21844;DHT22;11084;52.482;9.108;2023-04-10T16:17:42;17.30;62.80
21844;DHT22;11084;52.482;9.108;2023-04-10T16:20:08;17.30;62.20
21844;DHT22;11084;52.482;9.108;2023-04-10T16:22:34;17.30;62.30
21844;DHT22;11084;52.482;9.108;2023-04-10T16:25:01;17.20;61.50
21844;DHT22;11084;52.482;9.108;2023-04-10T16:27:27;17.20;62.20
21844;DHT22;11084;52.482;9.108;2023-04-10T16:29:53;17.20;62.20
21844;DHT22;11084;52.482;9.108;2023-04-10T16:32:19;17.10;61.00
21844;DHT22;11084;52.482;9.108;2023-04-10T16:34:46;17.00;61.10
21844;DHT22;11084;52.482;9.108;2023-04-10T16:37:12;17.00;61.30
21844;DHT22;11084;52.482;9.108;2023-04-10T16:39:38;16.90;60.80
21844;DHT22;11084;52.482;9.108;2023-04-10T16:42:04;16.90;62.40
21844;DHT22;11084;52.482;9.108;2023-04-10T16:44:31;16.90;61.20
21844;DHT22;11084;52.482;9.108;2023-04-10T16:46:57;16.80;61.30
21844;DHT22;11084;52.482;9.108;2023-04-10T16:49:24;16.70;61.00
21844;DHT22;11084;52.482;9.108;2023-04-10T16:51:51;16.70;61.20
21844;DHT22;11084;52.482;9.108;2023-04-10T16:54:17;16.70;61.30
21844;DHT22;11084;52.482;9.108;2023-04-10T16:56:44;16.70;61.70
21844;DHT22;11084;52.482;9.108;2023-04-10T16:59:10;16.70;62.10
21844;DHT22;11084;52.482;9.108;2023-04-10T17:01:36;16.60;62.30
21844;DHT22;11084;52.482;9.108;2023-04-10T17:04:05;16.60;62.10